Capay, California
Current Conditions -  °F | °C
As of 8:53 PM on Thursday 30 Oct 2014 (Local Time) from KVCB Reporting Station
Clear Clear  
Wind Chill: 64°   Ceiling: Unl
Heat Index: 64°   Visibility: 10mi
Dew Point: 54°   Wind: 8mph
Humidity: 70%   Direction: 170°S
Pressure: 29.87"   Gusts: NA
Location:  38.7°N, 122.04°W
Report Text: KVCB 310353Z AUTO 17007KT 10SM CLR 18/12 A2987 RMK AO2 SLP113 T01780122 TSNO
Loading
Personal Weather Stations






























Interactive Weather Map
Tropical Storm Tracking
New forecast layout! Learn more

10-Day Weather Forecast

Advertisements
Track Severe Weather on mobile